Terminal Aerodrome Forecast
Issued by NWS

Home | Current Version | Previous Version | Text Only | Print | Product List | Glossary On
Versions: 1 2 3 4 5 6 7 8 9 10 11 12 13 14 15 16 17 18
000
FTUS43 KMQT 270537
TAFCMX
TAF
KCMX 270537Z 2706/2806 27005KT P6SM SCT080
     FM271300 26009KT P6SM FEW200
     FM271700 26011G18KT P6SM FEW200
     FM272300 24008KT P6SM FEW200
     FM280200 21004KT P6SM FEW200=

USA.gov is the U.S. government's official web portal to all federal, state and local government web resources and services.